Time;durP1;ratioP1;P1;durP2;ratioP2;P2;SDS_P1;SDS_P2;PMS_P1;PMS_P2;Temp;Humidity;BMP_temperature;BMP_pressure;BME280_temperature;BME280_humidity;BME280_pressure;Samples;Min_cycle;Max_cycle;Signal;HPM_P1;HPM_P2
2022/09/19 00:01:36;;;;;;;0.60;0.50;;;;;;;;;;4983292;28;20244;-55
2022/09/19 00:04:04;;;;;;;1.50;0.50;;;;;;;;;;5004240;28;20262;-56
2022/09/19 00:06:35;;;;;;;0.70;0.60;;;;;;;;;;4998301;28;20287;-56
2022/09/19 00:09:03;;;;;;;0.57;0.50;;;;;;;;;;5000139;28;20220;-56
2022/09/19 00:11:29;;;;;;;1.53;0.60;;;;;;;;;;5008341;28;20246;-56
2022/09/19 00:13:58;;;;;;;0.90;0.60;;;;;;;;;;5006791;28;20308;-56
2022/09/19 00:16:33;;;;;;;0.70;0.43;;;;;;;;;;4999764;28;20196;-56
2022/09/19 00:19:02;;;;;;;0.70;0.67;;;;;;;;;;5004093;28;20779;-56
2022/09/19 00:21:38;;;;;;;1.53;0.67;;;;;;;;;;5002233;28;20212;-55
2022/09/19 00:27:00;;;;;;;2.50;0.73;;;;;;;;;;5001666;28;20224;-56
2022/09/19 00:29:26;;;;;;;0.70;0.50;;;;;;;;;;4995099;28;20220;-56
2022/09/19 00:31:53;;;;;;;0.70;0.60;;;;;;;;;;5005927;28;20246;-56
2022/09/19 00:34:20;;;;;;;1.53;0.50;;;;;;;;;;5003915;28;20226;-53
2022/09/19 00:36:46;;;;;;;2.10;0.60;;;;;;;;;;4983566;28;20724;-56
2022/09/19 00:39:15;;;;;;;1.03;0.63;;;;;;;;;;5005792;28;20231;-56
2022/09/19 00:41:43;;;;;;;1.00;0.60;;;;;;;;;;4981030;28;20243;-56
2022/09/19 00:44:21;;;;;;;2.57;0.53;;;;;;;;;;4984544;28;20749;-56
2022/09/19 00:46:56;;;;;;;0.77;0.60;;;;;;;;;;4999510;28;20655;-56
2022/09/19 00:49:24;;;;;;;1.37;0.67;;;;;;;;;;4984210;28;20234;-56
2022/09/19 00:51:53;;;;;;;0.40;0.40;;;;;;;;;;4983835;28;20224;-56
2022/09/19 00:54:23;;;;;;;0.77;0.60;;;;;;;;;;4989810;28;20250;-56
2022/09/19 00:56:51;;;;;;;1.00;0.53;;;;;;;;;;4996620;28;20283;-56
2022/09/19 00:59:20;;;;;;;1.33;0.70;;;;;;;;;;4980416;28;20280;-56
2022/09/19 01:01:48;;;;;;;1.37;0.70;;;;;;;;;;5002103;28;20307;-55
2022/09/19 01:04:18;;;;;;;0.70;0.70;;;;;;;;;;4982393;28;20292;-57
2022/09/19 01:06:58;;;;;;;0.70;0.53;;;;;;;;;;5005409;28;20232;-56
2022/09/19 01:09:44;;;;;;;1.03;0.60;;;;;;;;;;4982891;28;20288;-56
2022/09/19 01:12:23;;;;;;;2.33;0.60;;;;;;;;;;4999458;28;20301;-55
2022/09/19 01:15:08;;;;;;;0.63;0.60;;;;;;;;;;5004386;28;20203;-56
2022/09/19 01:17:42;;;;;;;1.40;0.60;;;;;;;;;;5001265;28;20250;-56
2022/09/19 01:20:32;;;;;;;0.63;0.50;;;;;;;;;;4992773;28;20660;-56
2022/09/19 01:23:25;;;;;;;1.27;0.60;;;;;;;;;;5009875;28;20230;-56
2022/09/19 01:26:06;;;;;;;1.47;0.60;;;;;;;;;;5010685;28;20693;-56
2022/09/19 01:28:34;;;;;;;1.90;0.60;;;;;;;;;;5006906;28;20196;-56
2022/09/19 01:31:17;;;;;;;0.43;0.40;;;;;;;;;;4983082;28;20252;-56
2022/09/19 01:33:53;;;;;;;0.83;0.50;;;;;;;;;;4974668;28;20220;-56
2022/09/19 01:36:21;;;;;;;2.60;0.77;;;;;;;;;;4993829;28;20282;-56
2022/09/19 01:38:49;;;;;;;0.70;0.63;;;;;;;;;;4986557;28;20880;-56
2022/09/19 01:41:16;;;;;;;0.67;0.57;;;;;;;;;;4978317;28;20661;-56
2022/09/19 01:43:42;;;;;;;1.07;0.80;;;;;;;;;;4983650;28;20328;-56
2022/09/19 01:46:27;;;;;;;0.60;0.60;;;;;;;;;;5006077;28;20227;-56
2022/09/19 01:49:03;;;;;;;0.60;0.60;;;;;;;;;;5002563;28;20470;-56
2022/09/19 01:51:35;;;;;;;1.10;0.60;;;;;;;;;;4979466;28;20670;-56
2022/09/19 01:54:06;;;;;;;0.80;0.60;;;;;;;;;;4986485;28;20262;-56
2022/09/19 01:56:58;;;;;;;1.20;0.47;;;;;;;;;;5008302;28;20680;-56
2022/09/19 01:59:40;;;;;;;3.30;0.73;;;;;;;;;;5006937;28;20288;-56
2022/09/19 02:02:25;;;;;;;0.50;0.43;;;;;;;;;;4987654;28;20315;-56
2022/09/19 02:04:58;;;;;;;0.60;0.60;;;;;;;;;;5004603;28;20255;-56
2022/09/19 02:07:32;;;;;;;0.80;0.60;;;;;;;;;;5000069;28;20284;-56
2022/09/19 02:10:03;;;;;;;2.80;0.70;;;;;;;;;;4987870;28;20197;-56
2022/09/19 02:12:32;;;;;;;2.03;0.73;;;;;;;;;;4980823;28;20246;-55
2022/09/19 02:15:00;;;;;;;1.17;0.60;;;;;;;;;;4981535;28;20225;-56
2022/09/19 02:17:44;;;;;;;1.73;0.50;;;;;;;;;;5005143;28;20291;-56
2022/09/19 02:20:15;;;;;;;0.50;0.50;;;;;;;;;;4984195;28;20200;-56
2022/09/19 02:22:48;;;;;;;1.43;0.60;;;;;;;;;;5006269;28;20495;-56
2022/09/19 02:25:20;;;;;;;0.50;0.50;;;;;;;;;;4983532;28;20288;-56
2022/09/19 02:28:11;;;;;;;1.83;0.50;;;;;;;;;;4983034;28;20628;-56
2022/09/19 02:30:38;;;;;;;0.50;0.50;;;;;;;;;;4972375;28;20235;-55
2022/09/19 02:33:06;;;;;;;2.20;0.70;;;;;;;;;;5007186;28;20403;-56
2022/09/19 02:35:43;;;;;;;0.63;0.50;;;;;;;;;;4991729;28;20196;-56
2022/09/19 02:38:15;;;;;;;2.53;0.80;;;;;;;;;;4994262;28;20282;-56
2022/09/19 02:41:01;;;;;;;1.10;0.60;;;;;;;;;;4970097;28;20224;-56
2022/09/19 02:43:36;;;;;;;1.63;0.60;;;;;;;;;;4991729;28;20307;-55
2022/09/19 02:46:07;;;;;;;1.17;0.60;;;;;;;;;;4984615;28;20237;-56
2022/09/19 02:48:55;;;;;;;0.83;0.73;;;;;;;;;;4984195;28;20216;-56
2022/09/19 02:51:30;;;;;;;1.80;0.67;;;;;;;;;;5007958;28;20231;-56
2022/09/19 02:54:09;;;;;;;2.13;0.70;;;;;;;;;;4987626;28;20300;-55
2022/09/19 02:56:36;;;;;;;3.77;0.90;;;;;;;;;;4982967;28;20196;-56
2022/09/19 02:59:09;;;;;;;2.53;0.73;;;;;;;;;;4980739;28;20572;-56
2022/09/19 03:01:38;;;;;;;2.20;0.80;;;;;;;;;;4974639;28;20235;-56
2022/09/19 03:04:14;;;;;;;1.23;0.67;;;;;;;;;;4973650;28;20221;-56
2022/09/19 03:06:53;;;;;;;1.67;0.73;;;;;;;;;;4996957;28;20196;-56
2022/09/19 03:09:22;;;;;;;1.07;0.83;;;;;;;;;;4999637;28;20612;-56
2022/09/19 03:11:55;;;;;;;1.83;0.60;;;;;;;;;;4990447;28;20295;-57
2022/09/19 03:14:22;;;;;;;0.97;0.60;;;;;;;;;;5004160;28;20282;-60
2022/09/19 03:16:54;;;;;;;1.17;0.50;;;;;;;;;;5001363;28;20252;-58
2022/09/19 03:19:23;;;;;;;1.07;0.67;;;;;;;;;;4985724;28;20242;-56
2022/09/19 03:21:52;;;;;;;1.67;0.60;;;;;;;;;;4980207;28;20232;-58
2022/09/19 03:24:18;;;;;;;2.17;0.70;;;;;;;;;;4997994;28;20205;-56
2022/09/19 03:26:45;;;;;;;0.93;0.53;;;;;;;;;;4993355;28;20290;-55
2022/09/19 03:29:11;;;;;;;1.33;0.70;;;;;;;;;;5003751;28;20244;-59
2022/09/19 03:31:37;;;;;;;0.93;0.60;;;;;;;;;;5006161;28;20231;-56
2022/09/19 03:34:04;;;;;;;3.07;0.97;;;;;;;;;;5008219;28;20218;-56
2022/09/19 03:36:33;;;;;;;0.80;0.60;;;;;;;;;;5007644;28;20295;-56
2022/09/19 03:39:01;;;;;;;1.07;0.67;;;;;;;;;;5003741;28;20224;-56
2022/09/19 03:41:32;;;;;;;2.73;1.00;;;;;;;;;;4998545;28;20254;-56
2022/09/19 03:44:02;;;;;;;1.90;0.80;;;;;;;;;;5006360;28;20303;-56
2022/09/19 03:46:30;;;;;;;0.60;0.60;;;;;;;;;;4988820;28;20286;-56
2022/09/19 03:49:00;;;;;;;1.20;0.60;;;;;;;;;;5006046;28;20200;-56
2022/09/19 03:51:27;;;;;;;0.93;0.60;;;;;;;;;;5007748;28;20201;-56
2022/09/19 03:53:53;;;;;;;2.27;0.80;;;;;;;;;;4999848;28;20239;-57
2022/09/19 03:56:19;;;;;;;0.80;0.60;;;;;;;;;;5009838;28;20231;-57
2022/09/19 03:58:46;;;;;;;1.27;0.50;;;;;;;;;;5008775;28;20238;-56
2022/09/19 04:01:14;;;;;;;0.80;0.67;;;;;;;;;;5001754;28;20282;-56
2022/09/19 04:03:46;;;;;;;0.60;0.50;;;;;;;;;;4990760;28;20231;-56
2022/09/19 04:06:12;;;;;;;2.27;0.70;;;;;;;;;;5009303;28;20234;-56
2022/09/19 04:08:38;;;;;;;1.70;0.60;;;;;;;;;;5003686;28;20243;-56
2022/09/19 04:11:05;;;;;;;2.47;0.70;;;;;;;;;;4987817;28;20232;-55
2022/09/19 04:13:33;;;;;;;4.27;1.30;;;;;;;;;;5008202;28;20215;-55
2022/09/19 04:16:00;;;;;;;3.73;1.17;;;;;;;;;;5007235;28;20254;-56
2022/09/19 04:18:27;;;;;;;2.23;0.77;;;;;;;;;;4998526;28;20207;-56
2022/09/19 04:20:55;;;;;;;1.93;0.77;;;;;;;;;;5006786;28;20834;-57
2022/09/19 04:23:23;;;;;;;1.20;0.60;;;;;;;;;;5008973;28;20644;-57
2022/09/19 04:25:49;;;;;;;0.70;0.60;;;;;;;;;;4989019;28;20234;-58
2022/09/19 04:28:20;;;;;;;2.43;0.73;;;;;;;;;;5003280;28;20196;-56
2022/09/19 04:30:46;;;;;;;2.40;1.00;;;;;;;;;;5005297;28;20254;-55
2022/09/19 04:33:14;;;;;;;1.40;0.53;;;;;;;;;;5001439;28;20632;-56
2022/09/19 04:35:43;;;;;;;3.43;0.90;;;;;;;;;;4998082;28;20300;-56
2022/09/19 04:38:12;;;;;;;1.67;0.67;;;;;;;;;;4986812;28;20227;-56
2022/09/19 04:40:44;;;;;;;2.37;0.73;;;;;;;;;;4998720;28;20299;-56
2022/09/19 04:43:12;;;;;;;2.37;0.70;;;;;;;;;;5001341;28;20335;-56
2022/09/19 04:45:40;;;;;;;3.50;0.70;;;;;;;;;;4996761;28;20293;-56
2022/09/19 04:48:07;;;;;;;4.93;1.00;;;;;;;;;;5003441;28;20634;-56
2022/09/19 04:50:34;;;;;;;2.27;1.00;;;;;;;;;;5003656;28;20255;-56
2022/09/19 04:53:00;;;;;;;0.67;0.60;;;;;;;;;;5008444;28;20307;-56
2022/09/19 04:55:27;;;;;;;3.77;1.23;;;;;;;;;;5011141;28;20224;-56
2022/09/19 04:57:54;;;;;;;2.97;0.93;;;;;;;;;;5008360;28;20265;-56
2022/09/19 05:00:38;;;;;;;2.10;0.70;;;;;;;;;;5010252;28;20621;-55
2022/09/19 05:03:08;;;;;;;4.67;1.00;;;;;;;;;;4989091;28;20688;-56
2022/09/19 05:05:36;;;;;;;1.73;0.70;;;;;;;;;;4993441;28;20238;-57
2022/09/19 05:08:04;;;;;;;0.73;0.53;;;;;;;;;;5007879;28;20224;-56
2022/09/19 05:10:32;;;;;;;1.30;0.70;;;;;;;;;;5002910;28;20239;-60
2022/09/19 05:12:59;;;;;;;3.60;1.30;;;;;;;;;;4974038;28;20779;-61
2022/09/19 05:15:26;;;;;;;3.43;0.93;;;;;;;;;;4994498;28;20295;-58
2022/09/19 05:17:53;;;;;;;6.53;1.50;;;;;;;;;;4998551;28;20294;-59
2022/09/19 05:20:20;;;;;;;4.97;1.23;;;;;;;;;;4983783;28;20291;-60
2022/09/19 05:22:47;;;;;;;3.13;1.50;;;;;;;;;;5004237;28;20311;-59
2022/09/19 05:25:15;;;;;;;6.27;1.30;;;;;;;;;;4995989;28;20704;-61
2022/09/19 05:27:41;;;;;;;4.97;1.40;;;;;;;;;;4998059;28;20453;-58
2022/09/19 05:30:09;;;;;;;4.67;1.20;;;;;;;;;;5006332;28;20283;-57
2022/09/19 05:32:36;;;;;;;4.33;1.00;;;;;;;;;;5007008;28;20254;-61
2022/09/19 05:35:03;;;;;;;4.63;1.30;;;;;;;;;;5002855;28;20220;-52
2022/09/19 05:37:30;;;;;;;4.13;1.40;;;;;;;;;;5002469;28;20231;-52
2022/09/19 05:39:56;;;;;;;4.93;1.30;;;;;;;;;;5003628;28;20231;-59
2022/09/19 05:42:23;;;;;;;4.00;1.20;;;;;;;;;;4998962;28;20223;-59
2022/09/19 05:44:49;;;;;;;8.40;1.50;;;;;;;;;;5006790;28;20227;-59
2022/09/19 05:47:15;;;;;;;6.90;1.87;;;;;;;;;;5005075;28;20232;-59
2022/09/19 05:49:42;;;;;;;3.03;1.43;;;;;;;;;;5000072;28;20488;-58
2022/09/19 05:54:54;;;;;;;5.70;1.33;;;;;;;;;;4999562;28;20258;-51
2022/09/19 05:57:20;;;;;;;6.17;2.10;;;;;;;;;;5003662;28;20634;-60
2022/09/19 05:59:46;;;;;;;4.17;1.00;;;;;;;;;;4999998;28;20234;-54
2022/09/19 06:02:13;;;;;;;4.63;1.40;;;;;;;;;;4995570;28;20401;-57
2022/09/19 06:04:39;;;;;;;4.73;1.60;;;;;;;;;;4985138;28;20212;-58
2022/09/19 06:07:08;;;;;;;3.87;1.20;;;;;;;;;;4994564;28;20603;-57
2022/09/19 06:09:35;;;;;;;3.63;1.13;;;;;;;;;;4999584;28;20557;-57
2022/09/19 06:12:02;;;;;;;4.07;1.83;;;;;;;;;;4997700;28;20287;-56
2022/09/19 06:14:28;;;;;;;4.13;1.07;;;;;;;;;;5004712;28;20364;-56
2022/09/19 06:16:54;;;;;;;3.40;1.00;;;;;;;;;;5001854;28;20636;-57
2022/09/19 06:19:21;;;;;;;3.37;1.37;;;;;;;;;;4984065;28;20197;-57
2022/09/19 06:21:47;;;;;;;5.63;1.37;;;;;;;;;;5000785;28;20292;-56
2022/09/19 06:24:14;;;;;;;4.13;1.30;;;;;;;;;;5003698;28;20298;-57
2022/09/19 06:26:40;;;;;;;2.13;1.10;;;;;;;;;;4999252;28;20626;-55
2022/09/19 06:29:07;;;;;;;4.37;1.03;;;;;;;;;;4998972;28;20617;-55
2022/09/19 06:31:35;;;;;;;3.83;1.20;;;;;;;;;;4995500;28;20262;-53
2022/09/19 06:34:01;;;;;;;2.33;1.20;;;;;;;;;;4982663;28;20216;-57
2022/09/19 06:36:28;;;;;;;2.77;1.00;;;;;;;;;;5003762;28;20296;-56
2022/09/19 06:38:54;;;;;;;4.13;1.37;;;;;;;;;;4982577;28;20291;-56
2022/09/19 06:41:20;;;;;;;2.43;1.30;;;;;;;;;;5003561;28;20231;-56
2022/09/19 06:43:47;;;;;;;3.63;1.33;;;;;;;;;;5005020;28;20700;-57
2022/09/19 06:46:14;;;;;;;2.43;1.27;;;;;;;;;;5000957;28;20620;-56
2022/09/19 06:48:40;;;;;;;4.80;1.60;;;;;;;;;;4983857;28;20269;-56
2022/09/19 06:51:06;;;;;;;2.27;0.77;;;;;;;;;;4996458;28;20227;-58
2022/09/19 06:53:33;;;;;;;2.87;1.20;;;;;;;;;;4996786;28;20240;-56
2022/09/19 06:55:59;;;;;;;2.70;1.17;;;;;;;;;;4992972;28;20637;-59
2022/09/19 06:58:26;;;;;;;3.40;1.20;;;;;;;;;;4998121;28;20299;-56
2022/09/19 07:00:53;;;;;;;3.73;1.20;;;;;;;;;;4988659;28;20197;-59
2022/09/19 07:03:21;;;;;;;2.57;1.20;;;;;;;;;;4979864;28;20216;-57
2022/09/19 07:05:47;;;;;;;2.97;0.87;;;;;;;;;;4994435;28;20680;-59
2022/09/19 07:08:14;;;;;;;3.23;0.90;;;;;;;;;;4994707;28;20231;-56
2022/09/19 07:10:42;;;;;;;2.67;1.20;;;;;;;;;;4989606;28;20323;-59
2022/09/19 07:13:13;;;;;;;2.07;1.03;;;;;;;;;;4989921;28;20730;-59
2022/09/19 07:15:39;;;;;;;2.33;0.93;;;;;;;;;;4993519;28;20231;-58
2022/09/19 07:18:10;;;;;;;3.13;0.97;;;;;;;;;;4988215;28;20291;-50
2022/09/19 07:20:37;;;;;;;4.37;1.33;;;;;;;;;;4993565;28;20652;-59
2022/09/19 07:23:17;;;;;;;4.27;1.37;;;;;;;;;;4997549;28;20251;-54
2022/09/19 07:25:44;;;;;;;3.53;1.13;;;;;;;;;;4996698;28;20602;-50
2022/09/19 07:28:13;;;;;;;3.58;1.15;;;;;;;;;;4994685;28;20319;-54
2022/09/19 07:30:40;;;;;;;2.47;1.20;;;;;;;;;;4979110;28;20741;-52
2022/09/19 07:33:07;;;;;;;5.80;1.60;;;;;;;;;;4995826;28;20282;-49
2022/09/19 07:35:35;;;;;;;4.70;1.40;;;;;;;;;;4997071;28;20219;-62
2022/09/19 07:38:03;;;;;;;2.17;0.90;;;;;;;;;;4976937;28;20204;-57
2022/09/19 07:40:32;;;;;;;5.77;1.20;;;;;;;;;;4995785;28;20227;-57
2022/09/19 07:43:03;;;;;;;2.70;1.08;;;;;;;;;;4989631;28;20225;-59
2022/09/19 07:45:35;;;;;;;3.85;1.10;;;;;;;;;;4996121;28;20560;-57
2022/09/19 07:48:03;;;;;;;3.15;1.00;;;;;;;;;;4995210;28;20196;-57
2022/09/19 07:50:30;;;;;;;2.55;1.40;;;;;;;;;;4981621;28;20287;-57
2022/09/19 07:53:09;;;;;;;2.15;1.00;;;;;;;;;;4974355;28;20252;-57
2022/09/19 07:55:36;;;;;;;3.72;1.27;;;;;;;;;;4996460;28;20227;-58
2022/09/19 07:58:03;;;;;;;2.65;0.82;;;;;;;;;;4997687;28;20231;-57
2022/09/19 08:00:31;;;;;;;3.35;1.00;;;;;;;;;;4994492;28;20927;-55
2022/09/19 08:03:03;;;;;;;2.30;1.00;;;;;;;;;;4992859;28;20252;-58
2022/09/19 08:05:34;;;;;;;2.25;0.93;;;;;;;;;;4992105;28;20216;-68
2022/09/19 08:08:00;;;;;;;2.55;1.02;;;;;;;;;;4993551;28;20495;-64
2022/09/19 08:10:27;;;;;;;3.90;1.10;;;;;;;;;;4994664;28;20291;-64
2022/09/19 08:12:58;;;;;;;1.63;0.75;;;;;;;;;;4974099;28;20374;-64
2022/09/19 08:15:25;;;;;;;2.05;1.02;;;;;;;;;;4994974;28;20227;-65
2022/09/19 08:17:56;;;;;;;1.40;0.80;;;;;;;;;;4995075;28;20231;-63
2022/09/19 08:20:22;;;;;;;2.88;1.02;;;;;;;;;;4989227;28;23429;-68
2022/09/19 08:22:49;;;;;;;1.77;1.00;;;;;;;;;;4997570;28;20270;-67
2022/09/19 08:25:16;;;;;;;2.03;0.90;;;;;;;;;;4984729;28;20320;-69
2022/09/19 08:27:45;;;;;;;2.55;1.30;;;;;;;;;;5004402;28;20219;-64
2022/09/19 08:30:12;;;;;;;3.67;1.00;;;;;;;;;;4986455;28;20238;-64
2022/09/19 08:32:39;;;;;;;2.00;1.10;;;;;;;;;;4999337;28;20252;-67
2022/09/19 08:35:05;;;;;;;1.88;1.08;;;;;;;;;;5001722;28;20258;-66
2022/09/19 08:37:32;;;;;;;1.80;0.85;;;;;;;;;;4997275;28;20220;-63
2022/09/19 08:40:16;;;;;;;3.08;0.90;;;;;;;;;;5002195;28;20287;-63
2022/09/19 08:42:48;;;;;;;2.13;0.90;;;;;;;;;;5002997;28;20282;-63
2022/09/19 08:45:19;;;;;;;4.30;1.30;;;;;;;;;;4999546;28;20778;-62
2022/09/19 08:47:46;;;;;;;1.55;0.90;;;;;;;;;;5005269;28;20299;-62
2022/09/19 08:50:17;;;;;;;1.30;0.80;;;;;;;;;;4986997;28;20227;-61
2022/09/19 08:52:48;;;;;;;1.90;0.90;;;;;;;;;;4984451;28;20224;-61
2022/09/19 08:55:26;;;;;;;2.20;1.02;;;;;;;;;;4985678;28;20276;-61
2022/09/19 08:58:11;;;;;;;2.55;1.05;;;;;;;;;;4988599;28;20300;-61
2022/09/19 09:00:39;;;;;;;1.98;0.90;;;;;;;;;;4989798;28;20234;-61
2022/09/19 09:03:09;;;;;;;1.23;0.73;;;;;;;;;;4984850;28;20707;-62
2022/09/19 09:05:45;;;;;;;1.98;1.00;;;;;;;;;;4990351;28;20199;-61
2022/09/19 09:08:39;;;;;;;1.63;0.80;;;;;;;;;;5003086;28;20230;-61
2022/09/19 09:11:18;;;;;;;1.67;0.90;;;;;;;;;;4973623;28;20215;-61
2022/09/19 09:13:54;;;;;;;1.80;0.75;;;;;;;;;;4987426;28;20215;-61
2022/09/19 09:17:08;;;;;;;2.00;0.80;;;;;;;;;;5003614;28;20579;-62
2022/09/19 09:19:38;;;;;;;1.95;0.82;;;;;;;;;;4978490;28;20301;-58
2022/09/19 09:22:16;;;;;;;3.60;1.00;;;;;;;;;;4999232;28;20200;-60
2022/09/19 09:25:05;;;;;;;2.35;1.00;;;;;;;;;;5005389;28;20235;-61
2022/09/19 09:27:41;;;;;;;1.80;1.00;;;;;;;;;;4988801;28;20228;-58
2022/09/19 09:30:13;;;;;;;1.77;1.00;;;;;;;;;;4980391;28;20282;-61
2022/09/19 09:32:44;;;;;;;2.75;0.90;;;;;;;;;;4982224;28;20240;-63
2022/09/19 09:35:28;;;;;;;2.13;0.85;;;;;;;;;;4967069;28;20224;-61
2022/09/19 09:38:25;;;;;;;2.00;0.80;;;;;;;;;;4973399;28;21462;-60
2022/09/19 09:43:58;;;;;;;1.73;0.90;;;;;;;;;;4983184;28;20246;-60
2022/09/19 09:46:53;;;;;;;1.20;0.75;;;;;;;;;;4995479;28;20200;-60
2022/09/19 09:49:21;;;;;;;2.30;0.90;;;;;;;;;;4991560;28;20231;-60
2022/09/19 09:52:17;;;;;;;1.02;0.80;;;;;;;;;;4993069;28;20208;-60
2022/09/19 09:58:06;;;;;;;2.92;0.80;;;;;;;;;;4997763;28;20200;-60
2022/09/19 10:03:45;;;;;;;1.30;0.80;;;;;;;;;;4986581;28;20220;-61
2022/09/19 10:06:23;;;;;;;2.35;0.77;;;;;;;;;;4999247;28;20192;-67
2022/09/19 10:08:59;;;;;;;1.42;0.98;;;;;;;;;;5001299;28;20349;-63
2022/09/19 10:11:44;;;;;;;6.75;1.10;;;;;;;;;;5003202;28;20729;-64
2022/09/19 10:14:31;;;;;;;4.40;0.85;;;;;;;;;;5003638;28;20189;-65
2022/09/19 10:17:00;;;;;;;2.30;1.00;;;;;;;;;;4989262;28;20250;-64
2022/09/19 10:19:27;;;;;;;2.45;0.93;;;;;;;;;;4985047;28;20357;-64
2022/09/19 10:21:55;;;;;;;1.83;0.90;;;;;;;;;;4981981;28;20236;-65
2022/09/19 10:24:47;;;;;;;0.98;0.68;;;;;;;;;;4984485;28;20642;-67
2022/09/19 10:27:26;;;;;;;1.67;0.70;;;;;;;;;;5000748;28;20210;-67
2022/09/19 10:29:59;;;;;;;1.98;0.82;;;;;;;;;;4995577;28;20223;-67
2022/09/19 10:32:39;;;;;;;2.85;0.85;;;;;;;;;;5002480;28;20731;-66
2022/09/19 10:35:26;;;;;;;1.65;1.00;;;;;;;;;;4986439;28;20224;-65
2022/09/19 10:38:16;;;;;;;1.27;0.80;;;;;;;;;;5009558;28;20208;-58
2022/09/19 10:41:00;;;;;;;1.30;0.60;;;;;;;;;;4996235;28;20242;-50
2022/09/19 10:43:32;;;;;;;1.67;1.02;;;;;;;;;;5003283;28;20648;-52
2022/09/19 10:46:07;;;;;;;0.98;0.65;;;;;;;;;;4980145;28;20255;-50
2022/09/19 10:48:35;;;;;;;0.77;0.70;;;;;;;;;;4999179;28;20750;-51
2022/09/19 10:51:08;;;;;;;1.83;0.88;;;;;;;;;;5001948;28;20652;-54
2022/09/19 10:53:38;;;;;;;1.27;0.80;;;;;;;;;;4985926;28;20259;-51
2022/09/19 10:56:07;;;;;;;2.42;0.98;;;;;;;;;;5000296;28;20279;-50
2022/09/19 10:58:39;;;;;;;4.05;1.20;;;;;;;;;;5004410;28;20239;-60
2022/09/19 11:01:18;;;;;;;2.47;0.98;;;;;;;;;;4981526;28;20283;-60
2022/09/19 11:03:57;;;;;;;2.08;0.85;;;;;;;;;;4997509;28;20216;-60
2022/09/19 11:06:24;;;;;;;2.90;0.85;;;;;;;;;;4997237;28;20258;-60
2022/09/19 11:08:52;;;;;;;1.65;0.80;;;;;;;;;;4995320;28;20291;-60
2022/09/19 11:11:29;;;;;;;1.35;0.90;;;;;;;;;;4981041;28;20299;-60
2022/09/19 11:14:15;;;;;;;1.77;0.82;;;;;;;;;;4996637;28;20922;-60
2022/09/19 11:17:02;;;;;;;1.60;1.10;;;;;;;;;;4993010;28;20291;-51
2022/09/19 11:19:35;;;;;;;1.40;0.80;;;;;;;;;;4997296;28;20206;-53
2022/09/19 11:22:26;;;;;;;1.48;1.00;;;;;;;;;;4977310;28;20271;-52
2022/09/19 11:25:18;;;;;;;1.70;1.17;;;;;;;;;;4994593;28;20323;-54
2022/09/19 11:28:16;;;;;;;1.60;0.90;;;;;;;;;;4977990;28;20217;-51
2022/09/19 11:31:05;;;;;;;2.15;1.00;;;;;;;;;;4995046;28;20236;-51
2022/09/19 11:34:23;;;;;;;2.33;0.90;;;;;;;;;;4978054;28;20258;-51
2022/09/19 11:37:37;;;;;;;2.35;0.90;;;;;;;;;;4954068;28;20214;-55
2022/09/19 11:40:21;;;;;;;1.38;0.98;;;;;;;;;;4991309;28;20463;-53
2022/09/19 11:43:11;;;;;;;4.07;0.80;;;;;;;;;;4992410;28;20228;-53
2022/09/19 11:45:59;;;;;;;2.03;0.82;;;;;;;;;;4996431;28;20228;-53
2022/09/19 11:48:36;;;;;;;2.17;1.08;;;;;;;;;;4977573;28;20239;-66
2022/09/19 11:51:29;;;;;;;1.65;0.93;;;;;;;;;;4975466;28;20231;-60
2022/09/19 11:54:27;;;;;;;3.20;1.10;;;;;;;;;;4982319;28;20254;-63
2022/09/19 11:57:00;;;;;;;1.45;1.15;;;;;;;;;;4981656;28;20232;-63
2022/09/19 11:59:32;;;;;;;2.88;1.30;;;;;;;;;;4998385;28;20286;-59
2022/09/19 12:02:36;;;;;;;1.45;0.80;;;;;;;;;;4999225;28;20234;-61
2022/09/19 12:05:32;;;;;;;1.30;0.80;;;;;;;;;;5000017;28;20376;-61
2022/09/19 12:08:21;;;;;;;2.38;0.95;;;;;;;;;;4970451;28;20201;-57
2022/09/19 12:11:08;;;;;;;1.27;0.80;;;;;;;;;;5004114;28;20200;-63
2022/09/19 12:13:53;;;;;;;2.70;1.00;;;;;;;;;;5006406;28;20234;-66
2022/09/19 12:16:30;;;;;;;1.75;1.00;;;;;;;;;;4999518;28;20195;-62
2022/09/19 12:19:05;;;;;;;2.33;0.80;;;;;;;;;;4985382;28;20196;-64
2022/09/19 12:21:40;;;;;;;1.60;0.90;;;;;;;;;;4974867;28;20235;-61
2022/09/19 12:27:12;;;;;;;1.30;0.80;;;;;;;;;;4985387;28;20196;-64
2022/09/19 12:29:42;;;;;;;1.35;0.70;;;;;;;;;;4983591;28;20229;-63
2022/09/19 12:32:22;;;;;;;2.80;0.98;;;;;;;;;;4998866;28;20240;-61
2022/09/19 12:34:59;;;;;;;1.15;0.73;;;;;;;;;;4994055;28;20295;-62
2022/09/19 12:37:43;;;;;;;0.98;0.60;;;;;;;;;;5002864;28;20200;-60
2022/09/19 12:40:16;;;;;;;3.58;1.10;;;;;;;;;;4984606;28;20669;-60
2022/09/19 12:42:51;;;;;;;2.10;0.80;;;;;;;;;;4997438;28;20220;-59
2022/09/19 12:45:50;;;;;;;1.25;0.70;;;;;;;;;;4996308;28;20306;-59
2022/09/19 12:48:23;;;;;;;0.93;0.60;;;;;;;;;;4978444;28;20296;-60
2022/09/19 12:50:51;;;;;;;0.82;0.70;;;;;;;;;;4978133;28;20201;-59
2022/09/19 12:53:40;;;;;;;1.42;0.70;;;;;;;;;;4994855;28;20263;-59
2022/09/19 12:56:15;;;;;;;0.77;0.70;;;;;;;;;;4980066;28;20217;-59
2022/09/19 12:59:10;;;;;;;0.90;0.60;;;;;;;;;;4986255;28;20200;-62
2022/09/19 13:01:52;;;;;;;2.08;0.65;;;;;;;;;;4997562;28;20224;-64
2022/09/19 13:04:30;;;;;;;1.90;0.80;;;;;;;;;;4997373;28;20274;-62
2022/09/19 13:07:04;;;;;;;1.27;0.60;;;;;;;;;;4998467;28;20279;-61
2022/09/19 13:09:57;;;;;;;1.25;0.85;;;;;;;;;;4981895;28;20224;-59
2022/09/19 13:12:32;;;;;;;1.80;0.77;;;;;;;;;;4962841;28;20248;-61
2022/09/19 13:15:02;;;;;;;1.08;0.80;;;;;;;;;;5003989;28;20227;-61
2022/09/19 13:23:30;;;;;;;2.33;0.80;;;;;;;;;;4987804;28;20252;-64
2022/09/19 13:26:00;;;;;;;1.50;0.80;;;;;;;;;;5005015;28;20304;-61
2022/09/19 13:28:44;;;;;;;1.80;0.50;;;;;;;;;;5002038;28;20507;-66
2022/09/19 13:31:12;;;;;;;1.20;0.77;;;;;;;;;;4986863;28;20250;-63
2022/09/19 13:33:53;;;;;;;1.05;0.70;;;;;;;;;;4983387;28;20278;-55
2022/09/19 13:36:22;;;;;;;2.63;0.77;;;;;;;;;;4982351;28;20708;-53
2022/09/19 13:39:03;;;;;;;3.50;1.30;;;;;;;;;;5003292;28;20286;-53
2022/09/19 13:41:48;;;;;;;2.13;0.68;;;;;;;;;;4986970;28;20676;-50
2022/09/19 13:44:28;;;;;;;2.33;0.73;;;;;;;;;;4986235;28;20287;-51
2022/09/19 13:47:07;;;;;;;6.13;1.05;;;;;;;;;;4981840;28;20275;-50
2022/09/19 13:49:48;;;;;;;3.63;0.90;;;;;;;;;;4983184;28;20227;-53
2022/09/19 13:52:20;;;;;;;2.83;0.82;;;;;;;;;;4999874;28;20255;-49
2022/09/19 13:54:49;;;;;;;4.15;0.90;;;;;;;;;;4997362;28;20231;-49
2022/09/19 13:57:25;;;;;;;2.35;0.80;;;;;;;;;;4996669;28;20259;-56
2022/09/19 13:59:58;;;;;;;1.63;0.60;;;;;;;;;;4995012;28;20231;-53
2022/09/19 14:02:33;;;;;;;3.00;0.80;;;;;;;;;;4997602;28;20235;-52
2022/09/19 14:05:06;;;;;;;4.18;0.90;;;;;;;;;;4995240;28;20482;-49
2022/09/19 14:07:39;;;;;;;1.52;0.70;;;;;;;;;;5002586;28;20204;-49
2022/09/19 14:10:36;;;;;;;1.02;0.63;;;;;;;;;;5000283;28;20585;-49
2022/09/19 14:13:26;;;;;;;3.05;0.73;;;;;;;;;;4988943;28;20426;-59
2022/09/19 14:15:59;;;;;;;1.75;0.90;;;;;;;;;;4994154;28;20565;-62
2022/09/19 14:18:37;;;;;;;3.60;0.82;;;;;;;;;;4997595;28;20643;-64
2022/09/19 14:21:05;;;;;;;2.28;0.70;;;;;;;;;;5001338;28;20633;-61
2022/09/19 14:23:44;;;;;;;1.73;0.70;;;;;;;;;;4997708;28;20818;-63
2022/09/19 14:26:14;;;;;;;2.08;0.75;;;;;;;;;;4991390;28;20301;-64
2022/09/19 14:28:48;;;;;;;0.93;0.60;;;;;;;;;;4997258;28;20208;-61
2022/09/19 14:31:25;;;;;;;1.75;0.82;;;;;;;;;;5002692;28;20209;-62
2022/09/19 14:34:13;;;;;;;1.67;0.73;;;;;;;;;;4985647;28;20227;-66
2022/09/19 14:37:01;;;;;;;2.90;0.98;;;;;;;;;;4990780;28;20239;-60
2022/09/19 14:39:47;;;;;;;2.85;0.80;;;;;;;;;;5004262;28;20748;-61
2022/09/19 14:42:27;;;;;;;1.85;0.90;;;;;;;;;;4998671;28;20258;-61
2022/09/19 14:45:13;;;;;;;1.42;0.60;;;;;;;;;;4969921;28;20235;-59
2022/09/19 14:47:52;;;;;;;2.33;0.70;;;;;;;;;;5006499;28;20208;-64
2022/09/19 14:50:34;;;;;;;1.77;0.73;;;;;;;;;;4995772;28;20189;-64
2022/09/19 14:53:13;;;;;;;1.55;0.73;;;;;;;;;;5022400;28;20220;-66
2022/09/19 14:55:48;;;;;;;1.83;0.70;;;;;;;;;;5000573;28;20580;-61
2022/09/19 14:58:32;;;;;;;1.20;0.50;;;;;;;;;;5000695;28;20609;-60
2022/09/19 15:01:01;;;;;;;1.17;0.55;;;;;;;;;;4985182;28;20223;-59
2022/09/19 15:03:28;;;;;;;1.95;0.77;;;;;;;;;;5004193;28;20266;-61
2022/09/19 15:05:55;;;;;;;1.50;0.68;;;;;;;;;;4999294;28;21071;-61
2022/09/19 15:08:29;;;;;;;1.48;0.70;;;;;;;;;;5001405;28;20244;-55
2022/09/19 15:11:03;;;;;;;1.95;0.70;;;;;;;;;;4999550;28;20239;-61
2022/09/19 15:13:33;;;;;;;2.33;0.90;;;;;;;;;;4996887;28;20231;-60
2022/09/19 15:16:08;;;;;;;2.75;0.80;;;;;;;;;;4979509;28;20257;-58
2022/09/19 15:18:35;;;;;;;1.60;0.70;;;;;;;;;;5002506;28;20570;-61
2022/09/19 15:21:04;;;;;;;6.57;0.80;;;;;;;;;;4982524;28;20250;-60
2022/09/19 15:23:36;;;;;;;2.47;0.70;;;;;;;;;;4993767;28;20713;-56
2022/09/19 15:26:05;;;;;;;2.95;0.70;;;;;;;;;;4989205;28;20263;-54
2022/09/19 15:28:37;;;;;;;2.17;1.00;;;;;;;;;;5008140;28;20223;-52
2022/09/19 15:31:17;;;;;;;3.08;1.00;;;;;;;;;;4994776;28;20251;-53
2022/09/19 15:33:46;;;;;;;4.75;2.40;;;;;;;;;;4975793;28;20271;-52
2022/09/19 15:36:15;;;;;;;4.55;1.25;;;;;;;;;;4976663;28;20217;-55
2022/09/19 15:38:42;;;;;;;2.25;0.70;;;;;;;;;;4981692;28;20201;-51
2022/09/19 15:41:10;;;;;;;1.73;1.00;;;;;;;;;;5007937;28;20203;-51
2022/09/19 15:43:42;;;;;;;2.20;0.75;;;;;;;;;;4981771;28;20217;-51
2022/09/19 15:46:28;;;;;;;2.63;0.68;;;;;;;;;;4988191;28;20295;-57